sensor_id;sensor_type;location;lat;lon;timestamp;P1;durP1;ratioP1;P2;durP2;ratioP2
76094;SDS011;64821;13.710;100.604;2023-04-30T00:00:21;25.40;;;15.95;;
76094;SDS011;64821;13.710;100.604;2023-04-30T00:01:25;22.10;;;15.30;;
76094;SDS011;64821;13.710;100.604;2023-04-30T00:02:28;25.13;;;16.20;;
76094;SDS011;64821;13.710;100.604;2023-04-30T00:03:32;25.70;;;15.43;;
76094;SDS011;64821;13.710;100.604;2023-04-30T00:04:36;23.88;;;16.27;;
76094;SDS011;64821;13.710;100.604;2023-04-30T00:05:40;22.55;;;14.90;;
76094;SDS011;64821;13.710;100.604;2023-04-30T00:06:44;23.23;;;15.40;;
76094;SDS011;64821;13.710;100.604;2023-04-30T00:07:48;22.65;;;15.52;;
76094;SDS011;64821;13.710;100.604;2023-04-30T00:08:52;21.25;;;15.65;;
76094;SDS011;64821;13.710;100.604;2023-04-30T00:09:55;24.92;;;15.50;;
76094;SDS011;64821;13.710;100.604;2023-04-30T00:10:59;22.58;;;15.25;;
76094;SDS011;64821;13.710;100.604;2023-04-30T00:12:03;22.73;;;14.70;;
76094;SDS011;64821;13.710;100.604;2023-04-30T00:13:07;24.17;;;15.32;;
76094;SDS011;64821;13.710;100.604;2023-04-30T00:14:11;25.35;;;15.00;;
76094;SDS011;64821;13.710;100.604;2023-04-30T00:15:16;24.80;;;15.95;;
76094;SDS011;64821;13.710;100.604;2023-04-30T00:16:20;23.42;;;15.13;;
76094;SDS011;64821;13.710;100.604;2023-04-30T00:17:24;24.97;;;15.83;;
76094;SDS011;64821;13.710;100.604;2023-04-30T00:18:28;27.58;;;16.63;;
76094;SDS011;64821;13.710;100.604;2023-04-30T00:19:32;22.17;;;15.85;;
76094;SDS011;64821;13.710;100.604;2023-04-30T00:20:36;24.00;;;15.68;;
76094;SDS011;64821;13.710;100.604;2023-04-30T00:21:39;23.98;;;15.82;;
76094;SDS011;64821;13.710;100.604;2023-04-30T00:22:43;23.00;;;15.93;;
76094;SDS011;64821;13.710;100.604;2023-04-30T00:23:47;24.48;;;15.93;;
76094;SDS011;64821;13.710;100.604;2023-04-30T00:24:51;23.92;;;16.52;;
76094;SDS011;64821;13.710;100.604;2023-04-30T00:25:54;23.35;;;16.20;;
76094;SDS011;64821;13.710;100.604;2023-04-30T00:26:58;24.50;;;15.77;;
76094;SDS011;64821;13.710;100.604;2023-04-30T00:28:02;22.30;;;15.60;;
76094;SDS011;64821;13.710;100.604;2023-04-30T00:29:06;25.65;;;15.75;;
76094;SDS011;64821;13.710;100.604;2023-04-30T00:30:10;24.45;;;15.77;;
76094;SDS011;64821;13.710;100.604;2023-04-30T00:31:16;25.23;;;16.80;;
76094;SDS011;64821;13.710;100.604;2023-04-30T00:32:20;23.60;;;16.02;;
76094;SDS011;64821;13.710;100.604;2023-04-30T00:33:24;25.97;;;16.17;;
76094;SDS011;64821;13.710;100.604;2023-04-30T00:34:28;24.48;;;16.60;;
76094;SDS011;64821;13.710;100.604;2023-04-30T00:35:31;23.23;;;15.57;;
76094;SDS011;64821;13.710;100.604;2023-04-30T00:36:35;25.63;;;15.95;;
76094;SDS011;64821;13.710;100.604;2023-04-30T00:37:39;24.20;;;15.38;;
76094;SDS011;64821;13.710;100.604;2023-04-30T00:38:43;21.20;;;14.50;;
76094;SDS011;64821;13.710;100.604;2023-04-30T00:39:46;26.48;;;15.82;;
76094;SDS011;64821;13.710;100.604;2023-04-30T00:40:50;25.95;;;16.92;;
76094;SDS011;64821;13.710;100.604;2023-04-30T00:41:54;22.00;;;15.07;;
76094;SDS011;64821;13.710;100.604;2023-04-30T00:42:58;21.20;;;13.93;;
76094;SDS011;64821;13.710;100.604;2023-04-30T00:44:02;24.07;;;17.13;;
76094;SDS011;64821;13.710;100.604;2023-04-30T00:45:06;26.05;;;18.33;;
76094;SDS011;64821;13.710;100.604;2023-04-30T00:46:11;19.35;;;13.35;;
76094;SDS011;64821;13.710;100.604;2023-04-30T00:47:16;16.33;;;11.07;;
76094;SDS011;64821;13.710;100.604;2023-04-30T00:48:20;14.25;;;9.93;;
76094;SDS011;64821;13.710;100.604;2023-04-30T00:49:24;14.83;;;9.53;;
76094;SDS011;64821;13.710;100.604;2023-04-30T00:50:28;14.45;;;8.90;;
76094;SDS011;64821;13.710;100.604;2023-04-30T00:51:32;15.50;;;9.43;;
76094;SDS011;64821;13.710;100.604;2023-04-30T00:52:36;14.85;;;9.77;;
76094;SDS011;64821;13.710;100.604;2023-04-30T00:53:40;15.38;;;10.45;;
76094;SDS011;64821;13.710;100.604;2023-04-30T00:54:45;16.17;;;10.60;;
76094;SDS011;64821;13.710;100.604;2023-04-30T00:55:49;15.93;;;10.15;;
76094;SDS011;64821;13.710;100.604;2023-04-30T00:56:54;15.43;;;10.35;;
76094;SDS011;64821;13.710;100.604;2023-04-30T00:57:59;15.70;;;10.55;;
76094;SDS011;64821;13.710;100.604;2023-04-30T00:59:03;14.77;;;10.13;;
76094;SDS011;64821;13.710;100.604;2023-04-30T01:00:07;16.67;;;10.20;;
76094;SDS011;64821;13.710;100.604;2023-04-30T01:01:12;15.85;;;9.50;;
76094;SDS011;64821;13.710;100.604;2023-04-30T01:02:18;17.77;;;9.60;;
76094;SDS011;64821;13.710;100.604;2023-04-30T01:03:22;13.63;;;9.15;;
76094;SDS011;64821;13.710;100.604;2023-04-30T01:04:26;14.98;;;9.07;;
76094;SDS011;64821;13.710;100.604;2023-04-30T01:05:31;15.03;;;9.00;;
76094;SDS011;64821;13.710;100.604;2023-04-30T01:06:34;13.13;;;8.93;;
76094;SDS011;64821;13.710;100.604;2023-04-30T01:07:38;14.75;;;8.82;;
76094;SDS011;64821;13.710;100.604;2023-04-30T01:08:42;13.98;;;8.68;;
76094;SDS011;64821;13.710;100.604;2023-04-30T01:09:47;14.60;;;8.82;;
76094;SDS011;64821;13.710;100.604;2023-04-30T01:10:53;13.77;;;9.00;;
76094;SDS011;64821;13.710;100.604;2023-04-30T01:12:14;16.05;;;9.65;;
76094;SDS011;64821;13.710;100.604;2023-04-30T01:13:24;16.58;;;10.02;;
76094;SDS011;64821;13.710;100.604;2023-04-30T01:14:36;15.68;;;9.38;;
76094;SDS011;64821;13.710;100.604;2023-04-30T01:15:46;14.73;;;9.50;;
76094;SDS011;64821;13.710;100.604;2023-04-30T01:17:02;17.43;;;9.60;;
76094;SDS011;64821;13.710;100.604;2023-04-30T01:18:12;16.92;;;10.27;;
76094;SDS011;64821;13.710;100.604;2023-04-30T01:19:26;20.40;;;11.27;;
76094;SDS011;64821;13.710;100.604;2023-04-30T01:20:37;26.73;;;12.57;;
76094;SDS011;64821;13.710;100.604;2023-04-30T01:21:45;20.50;;;12.32;;
76094;SDS011;64821;13.710;100.604;2023-04-30T01:22:51;22.53;;;13.00;;
76094;SDS011;64821;13.710;100.604;2023-04-30T01:25:43;26.80;;;13.70;;
76094;SDS011;64821;13.710;100.604;2023-04-30T01:26:58;22.33;;;12.88;;
76094;SDS011;64821;13.710;100.604;2023-04-30T01:28:17;19.10;;;12.05;;
76094;SDS011;64821;13.710;100.604;2023-04-30T01:29:22;20.27;;;12.37;;
76094;SDS011;64821;13.710;100.604;2023-04-30T01:30:29;18.80;;;12.25;;
76094;SDS011;64821;13.710;100.604;2023-04-30T01:31:34;19.85;;;12.50;;
76094;SDS011;64821;13.710;100.604;2023-04-30T01:32:38;19.75;;;12.52;;
76094;SDS011;64821;13.710;100.604;2023-04-30T01:33:41;21.50;;;13.43;;
76094;SDS011;64821;13.710;100.604;2023-04-30T01:34:45;23.07;;;13.13;;
76094;SDS011;64821;13.710;100.604;2023-04-30T01:35:55;21.25;;;13.77;;
76094;SDS011;64821;13.710;100.604;2023-04-30T01:37:13;21.42;;;12.82;;
76094;SDS011;64821;13.710;100.604;2023-04-30T01:38:27;21.17;;;12.95;;
76094;SDS011;64821;13.710;100.604;2023-04-30T01:39:55;25.10;;;13.43;;
76094;SDS011;64821;13.710;100.604;2023-04-30T01:41:08;27.60;;;13.80;;
76094;SDS011;64821;13.710;100.604;2023-04-30T01:42:19;26.15;;;13.35;;
76094;SDS011;64821;13.710;100.604;2023-04-30T01:43:27;27.85;;;15.07;;
76094;SDS011;64821;13.710;100.604;2023-04-30T01:44:43;27.15;;;14.70;;
76094;SDS011;64821;13.710;100.604;2023-04-30T01:46:00;29.27;;;14.18;;
76094;SDS011;64821;13.710;100.604;2023-04-30T01:47:20;22.70;;;13.83;;
76094;SDS011;64821;13.710;100.604;2023-04-30T01:48:34;22.40;;;13.23;;
76094;SDS011;64821;13.710;100.604;2023-04-30T01:49:47;21.75;;;13.32;;
76094;SDS011;64821;13.710;100.604;2023-04-30T01:51:00;22.08;;;13.48;;
76094;SDS011;64821;13.710;100.604;2023-04-30T01:52:12;22.02;;;14.05;;
76094;SDS011;64821;13.710;100.604;2023-04-30T01:53:22;23.10;;;14.73;;
76094;SDS011;64821;13.710;100.604;2023-04-30T01:54:33;23.65;;;14.48;;
76094;SDS011;64821;13.710;100.604;2023-04-30T01:55:45;24.27;;;14.57;;
76094;SDS011;64821;13.710;100.604;2023-04-30T01:56:56;20.88;;;14.02;;
76094;SDS011;64821;13.710;100.604;2023-04-30T01:58:05;20.88;;;13.88;;
76094;SDS011;64821;13.710;100.604;2023-04-30T01:59:13;21.73;;;13.00;;
76094;SDS011;64821;13.710;100.604;2023-04-30T02:00:17;24.02;;;14.40;;
76094;SDS011;64821;13.710;100.604;2023-04-30T02:01:25;24.50;;;14.80;;
76094;SDS011;64821;13.710;100.604;2023-04-30T02:02:30;22.90;;;13.90;;
76094;SDS011;64821;13.710;100.604;2023-04-30T02:03:34;20.40;;;13.48;;
76094;SDS011;64821;13.710;100.604;2023-04-30T02:04:38;20.93;;;13.90;;
76094;SDS011;64821;13.710;100.604;2023-04-30T02:05:42;22.88;;;13.63;;
76094;SDS011;64821;13.710;100.604;2023-04-30T02:06:45;22.38;;;13.98;;
76094;SDS011;64821;13.710;100.604;2023-04-30T02:07:49;22.15;;;12.82;;
76094;SDS011;64821;13.710;100.604;2023-04-30T02:08:54;18.52;;;12.85;;
76094;SDS011;64821;13.710;100.604;2023-04-30T02:09:58;20.73;;;11.70;;
76094;SDS011;64821;13.710;100.604;2023-04-30T02:11:02;21.20;;;12.90;;
76094;SDS011;64821;13.710;100.604;2023-04-30T02:12:06;21.10;;;13.10;;
76094;SDS011;64821;13.710;100.604;2023-04-30T02:13:10;21.05;;;13.35;;
76094;SDS011;64821;13.710;100.604;2023-04-30T02:14:15;20.45;;;11.90;;
76094;SDS011;64821;13.710;100.604;2023-04-30T02:15:19;19.93;;;12.37;;
76094;SDS011;64821;13.710;100.604;2023-04-30T02:16:23;19.80;;;11.63;;
76094;SDS011;64821;13.710;100.604;2023-04-30T02:17:27;18.95;;;11.25;;
76094;SDS011;64821;13.710;100.604;2023-04-30T02:18:30;17.48;;;10.25;;
76094;SDS011;64821;13.710;100.604;2023-04-30T02:19:34;16.40;;;10.07;;
76094;SDS011;64821;13.710;100.604;2023-04-30T02:20:38;17.60;;;10.33;;
76094;SDS011;64821;13.710;100.604;2023-04-30T02:21:42;16.45;;;9.52;;
76094;SDS011;64821;13.710;100.604;2023-04-30T02:22:46;15.63;;;8.80;;
76094;SDS011;64821;13.710;100.604;2023-04-30T02:23:49;13.98;;;8.30;;
76094;SDS011;64821;13.710;100.604;2023-04-30T02:24:53;14.77;;;7.60;;
76094;SDS011;64821;13.710;100.604;2023-04-30T02:25:57;13.27;;;6.47;;
76094;SDS011;64821;13.710;100.604;2023-04-30T02:27:01;11.80;;;6.05;;
76094;SDS011;64821;13.710;100.604;2023-04-30T02:28:05;10.80;;;5.40;;
76094;SDS011;64821;13.710;100.604;2023-04-30T02:29:08;9.93;;;4.95;;
76094;SDS011;64821;13.710;100.604;2023-04-30T02:30:14;10.20;;;4.57;;
76094;SDS011;64821;13.710;100.604;2023-04-30T02:31:18;8.87;;;3.77;;
76094;SDS011;64821;13.710;100.604;2023-04-30T02:32:21;7.80;;;3.58;;
76094;SDS011;64821;13.710;100.604;2023-04-30T02:33:25;8.95;;;3.58;;
76094;SDS011;64821;13.710;100.604;2023-04-30T02:34:29;7.78;;;3.20;;
76094;SDS011;64821;13.710;100.604;2023-04-30T02:35:33;7.65;;;3.10;;
76094;SDS011;64821;13.710;100.604;2023-04-30T02:36:36;7.90;;;2.90;;
76094;SDS011;64821;13.710;100.604;2023-04-30T02:37:40;7.93;;;3.60;;
76094;SDS011;64821;13.710;100.604;2023-04-30T02:38:44;8.18;;;3.60;;
76094;SDS011;64821;13.710;100.604;2023-04-30T02:39:48;8.15;;;3.13;;
76094;SDS011;64821;13.710;100.604;2023-04-30T02:40:52;7.63;;;3.30;;
76094;SDS011;64821;13.710;100.604;2023-04-30T02:41:55;8.20;;;3.50;;
76094;SDS011;64821;13.710;100.604;2023-04-30T02:42:59;8.50;;;3.30;;
76094;SDS011;64821;13.710;100.604;2023-04-30T02:44:03;9.18;;;3.35;;
76094;SDS011;64821;13.710;100.604;2023-04-30T02:45:07;9.48;;;3.85;;
76094;SDS011;64821;13.710;100.604;2023-04-30T02:46:13;8.63;;;3.40;;
76094;SDS011;64821;13.710;100.604;2023-04-30T02:47:17;9.13;;;3.30;;
76094;SDS011;64821;13.710;100.604;2023-04-30T02:48:21;9.00;;;3.80;;
76094;SDS011;64821;13.710;100.604;2023-04-30T02:49:25;9.02;;;3.60;;
76094;SDS011;64821;13.710;100.604;2023-04-30T02:50:28;8.43;;;3.20;;
76094;SDS011;64821;13.710;100.604;2023-04-30T02:51:32;8.27;;;3.60;;
76094;SDS011;64821;13.710;100.604;2023-04-30T02:52:36;8.80;;;3.70;;
76094;SDS011;64821;13.710;100.604;2023-04-30T02:53:40;8.77;;;3.65;;
76094;SDS011;64821;13.710;100.604;2023-04-30T02:54:44;9.18;;;3.55;;
76094;SDS011;64821;13.710;100.604;2023-04-30T02:55:48;8.27;;;3.53;;
76094;SDS011;64821;13.710;100.604;2023-04-30T02:56:52;10.63;;;3.53;;
76094;SDS011;64821;13.710;100.604;2023-04-30T02:57:56;8.27;;;3.40;;
76094;SDS011;64821;13.710;100.604;2023-04-30T02:58:59;9.60;;;3.53;;
76094;SDS011;64821;13.710;100.604;2023-04-30T03:00:03;8.10;;;3.60;;
76094;SDS011;64821;13.710;100.604;2023-04-30T03:01:08;7.97;;;3.42;;
76094;SDS011;64821;13.710;100.604;2023-04-30T03:02:13;7.90;;;3.58;;
76094;SDS011;64821;13.710;100.604;2023-04-30T03:03:17;8.47;;;3.80;;
76094;SDS011;64821;13.710;100.604;2023-04-30T03:04:22;8.45;;;3.88;;
76094;SDS011;64821;13.710;100.604;2023-04-30T03:05:25;8.90;;;4.45;;
76094;SDS011;64821;13.710;100.604;2023-04-30T03:06:30;10.63;;;4.97;;
76094;SDS011;64821;13.710;100.604;2023-04-30T03:07:34;8.82;;;4.47;;
76094;SDS011;64821;13.710;100.604;2023-04-30T03:08:37;9.97;;;5.00;;
76094;SDS011;64821;13.710;100.604;2023-04-30T03:09:42;10.48;;;5.20;;
76094;SDS011;64821;13.710;100.604;2023-04-30T03:10:46;11.65;;;5.60;;
76094;SDS011;64821;13.710;100.604;2023-04-30T03:11:49;11.18;;;5.72;;
76094;SDS011;64821;13.710;100.604;2023-04-30T03:12:53;10.77;;;5.78;;
76094;SDS011;64821;13.710;100.604;2023-04-30T03:13:57;11.17;;;6.07;;
76094;SDS011;64821;13.710;100.604;2023-04-30T03:15:01;11.27;;;6.10;;
76094;SDS011;64821;13.710;100.604;2023-04-30T03:16:05;13.60;;;6.63;;
76094;SDS011;64821;13.710;100.604;2023-04-30T03:17:09;10.38;;;6.20;;
76094;SDS011;64821;13.710;100.604;2023-04-30T03:18:14;12.32;;;6.05;;
76094;SDS011;64821;13.710;100.604;2023-04-30T03:19:18;11.03;;;5.87;;
76094;SDS011;64821;13.710;100.604;2023-04-30T03:20:22;12.73;;;6.55;;
76094;SDS011;64821;13.710;100.604;2023-04-30T03:21:26;13.82;;;6.50;;
76094;SDS011;64821;13.710;100.604;2023-04-30T03:22:29;12.18;;;6.50;;
76094;SDS011;64821;13.710;100.604;2023-04-30T03:23:33;11.13;;;6.10;;
76094;SDS011;64821;13.710;100.604;2023-04-30T03:24:37;11.67;;;6.40;;
76094;SDS011;64821;13.710;100.604;2023-04-30T03:25:40;13.18;;;6.60;;
76094;SDS011;64821;13.710;100.604;2023-04-30T03:26:44;12.98;;;7.10;;
76094;SDS011;64821;13.710;100.604;2023-04-30T03:27:48;14.07;;;7.72;;
76094;SDS011;64821;13.710;100.604;2023-04-30T03:28:52;14.20;;;7.07;;
76094;SDS011;64821;13.710;100.604;2023-04-30T03:29:56;11.43;;;5.80;;
76094;SDS011;64821;13.710;100.604;2023-04-30T03:31:00;11.73;;;6.05;;
76094;SDS011;64821;13.710;100.604;2023-04-30T03:32:04;11.90;;;5.85;;
76094;SDS011;64821;13.710;100.604;2023-04-30T03:33:08;10.80;;;5.40;;
76094;SDS011;64821;13.710;100.604;2023-04-30T03:34:13;12.38;;;5.72;;
76094;SDS011;64821;13.710;100.604;2023-04-30T03:35:17;11.50;;;5.73;;
76094;SDS011;64821;13.710;100.604;2023-04-30T03:36:21;11.48;;;5.53;;
76094;SDS011;64821;13.710;100.604;2023-04-30T03:37:25;12.65;;;6.13;;
76094;SDS011;64821;13.710;100.604;2023-04-30T03:38:29;10.38;;;5.20;;
76094;SDS011;64821;13.710;100.604;2023-04-30T03:39:33;10.50;;;5.25;;
76094;SDS011;64821;13.710;100.604;2023-04-30T03:40:36;11.23;;;5.10;;
76094;SDS011;64821;13.710;100.604;2023-04-30T03:41:40;12.07;;;4.93;;
76094;SDS011;64821;13.710;100.604;2023-04-30T03:42:44;10.35;;;5.20;;
76094;SDS011;64821;13.710;100.604;2023-04-30T03:43:50;13.05;;;5.20;;
76094;SDS011;64821;13.710;100.604;2023-04-30T03:44:54;11.43;;;5.05;;
76094;SDS011;64821;13.710;100.604;2023-04-30T03:45:57;11.83;;;4.70;;
76094;SDS011;64821;13.710;100.604;2023-04-30T03:47:01;12.00;;;4.93;;
76094;SDS011;64821;13.710;100.604;2023-04-30T03:48:05;11.40;;;5.00;;
76094;SDS011;64821;13.710;100.604;2023-04-30T03:49:09;13.27;;;5.55;;
76094;SDS011;64821;13.710;100.604;2023-04-30T03:50:15;10.23;;;4.90;;
76094;SDS011;64821;13.710;100.604;2023-04-30T03:51:20;12.60;;;5.27;;
76094;SDS011;64821;13.710;100.604;2023-04-30T03:52:24;10.73;;;5.05;;
76094;SDS011;64821;13.710;100.604;2023-04-30T03:53:28;11.73;;;5.40;;
76094;SDS011;64821;13.710;100.604;2023-04-30T03:54:31;11.05;;;5.10;;
76094;SDS011;64821;13.710;100.604;2023-04-30T03:55:35;10.95;;;5.38;;
76094;SDS011;64821;13.710;100.604;2023-04-30T03:56:39;15.10;;;5.87;;
76094;SDS011;64821;13.710;100.604;2023-04-30T03:57:43;12.88;;;6.38;;
76094;SDS011;64821;13.710;100.604;2023-04-30T03:58:47;16.02;;;8.68;;
76094;SDS011;64821;13.710;100.604;2023-04-30T03:59:51;18.02;;;9.07;;
76094;SDS011;64821;13.710;100.604;2023-04-30T04:00:55;17.85;;;9.48;;
76094;SDS011;64821;13.710;100.604;2023-04-30T04:01:59;17.77;;;9.37;;
76094;SDS011;64821;13.710;100.604;2023-04-30T04:03:03;16.63;;;11.02;;
76094;SDS011;64821;13.710;100.604;2023-04-30T04:04:07;15.40;;;10.10;;
76094;SDS011;64821;13.710;100.604;2023-04-30T04:05:11;16.30;;;10.77;;
76094;SDS011;64821;13.710;100.604;2023-04-30T04:06:16;18.92;;;11.40;;
76094;SDS011;64821;13.710;100.604;2023-04-30T04:07:20;18.23;;;12.03;;
76094;SDS011;64821;13.710;100.604;2023-04-30T04:08:24;19.63;;;12.73;;
76094;SDS011;64821;13.710;100.604;2023-04-30T04:09:28;19.05;;;10.90;;
76094;SDS011;64821;13.710;100.604;2023-04-30T04:10:31;19.85;;;11.52;;
76094;SDS011;64821;13.710;100.604;2023-04-30T04:11:36;18.02;;;12.23;;
76094;SDS011;64821;13.710;100.604;2023-04-30T04:12:39;19.07;;;11.53;;
76094;SDS011;64821;13.710;100.604;2023-04-30T04:13:43;20.48;;;12.43;;
76094;SDS011;64821;13.710;100.604;2023-04-30T04:14:47;19.00;;;12.02;;
76094;SDS011;64821;13.710;100.604;2023-04-30T04:15:51;18.42;;;11.70;;
76094;SDS011;64821;13.710;100.604;2023-04-30T04:16:54;18.73;;;12.13;;
76094;SDS011;64821;13.710;100.604;2023-04-30T04:17:58;15.93;;;10.50;;
76094;SDS011;64821;13.710;100.604;2023-04-30T04:19:02;18.80;;;11.20;;
76094;SDS011;64821;13.710;100.604;2023-04-30T04:20:06;17.60;;;11.00;;
76094;SDS011;64821;13.710;100.604;2023-04-30T04:21:17;18.65;;;11.43;;
76094;SDS011;64821;13.710;100.604;2023-04-30T04:22:20;17.88;;;10.45;;
76094;SDS011;64821;13.710;100.604;2023-04-30T04:23:24;14.90;;;8.73;;
76094;SDS011;64821;13.710;100.604;2023-04-30T04:24:28;14.65;;;8.80;;
76094;SDS011;64821;13.710;100.604;2023-04-30T04:25:32;17.90;;;9.25;;
76094;SDS011;64821;13.710;100.604;2023-04-30T04:26:36;14.20;;;8.77;;
76094;SDS011;64821;13.710;100.604;2023-04-30T04:27:40;14.75;;;8.32;;
76094;SDS011;64821;13.710;100.604;2023-04-30T04:28:43;15.83;;;8.77;;
76094;SDS011;64821;13.710;100.604;2023-04-30T04:29:47;17.08;;;8.88;;
76094;SDS011;64821;13.710;100.604;2023-04-30T04:30:51;13.77;;;8.85;;
76094;SDS011;64821;13.710;100.604;2023-04-30T04:31:55;14.23;;;8.68;;
76094;SDS011;64821;13.710;100.604;2023-04-30T04:32:59;15.48;;;8.50;;
76094;SDS011;64821;13.710;100.604;2023-04-30T04:34:03;18.23;;;9.23;;
76094;SDS011;64821;13.710;100.604;2023-04-30T04:35:07;13.95;;;7.75;;
76094;SDS011;64821;13.710;100.604;2023-04-30T04:36:11;16.30;;;8.52;;
76094;SDS011;64821;13.710;100.604;2023-04-30T04:37:16;14.43;;;8.90;;
76094;SDS011;64821;13.710;100.604;2023-04-30T04:38:20;13.90;;;8.75;;
76094;SDS011;64821;13.710;100.604;2023-04-30T04:39:24;13.33;;;8.30;;
76094;SDS011;64821;13.710;100.604;2023-04-30T04:40:28;13.52;;;8.13;;
76094;SDS011;64821;13.710;100.604;2023-04-30T04:41:32;14.27;;;8.40;;
76094;SDS011;64821;13.710;100.604;2023-04-30T04:42:36;14.68;;;8.50;;
76094;SDS011;64821;13.710;100.604;2023-04-30T04:43:40;15.05;;;8.85;;
76094;SDS011;64821;13.710;100.604;2023-04-30T04:44:44;14.57;;;8.53;;
76094;SDS011;64821;13.710;100.604;2023-04-30T04:45:48;15.65;;;8.63;;
76094;SDS011;64821;13.710;100.604;2023-04-30T04:46:52;15.38;;;8.52;;
76094;SDS011;64821;13.710;100.604;2023-04-30T04:47:56;15.85;;;8.65;;
76094;SDS011;64821;13.710;100.604;2023-04-30T04:49:00;15.93;;;9.27;;
76094;SDS011;64821;13.710;100.604;2023-04-30T04:50:03;14.07;;;9.00;;
76094;SDS011;64821;13.710;100.604;2023-04-30T04:51:08;15.18;;;9.10;;
76094;SDS011;64821;13.710;100.604;2023-04-30T04:52:12;14.63;;;8.80;;
76094;SDS011;64821;13.710;100.604;2023-04-30T04:53:17;13.75;;;8.32;;
76094;SDS011;64821;13.710;100.604;2023-04-30T04:54:21;15.05;;;9.05;;
76094;SDS011;64821;13.710;100.604;2023-04-30T04:55:25;14.63;;;8.73;;
76094;SDS011;64821;13.710;100.604;2023-04-30T04:56:28;15.70;;;8.85;;
76094;SDS011;64821;13.710;100.604;2023-04-30T04:57:32;15.48;;;8.70;;
76094;SDS011;64821;13.710;100.604;2023-04-30T04:58:36;13.15;;;8.52;;
76094;SDS011;64821;13.710;100.604;2023-04-30T04:59:40;16.85;;;9.00;;
76094;SDS011;64821;13.710;100.604;2023-04-30T05:00:43;14.07;;;9.13;;
76094;SDS011;64821;13.710;100.604;2023-04-30T05:01:47;15.82;;;9.30;;
76094;SDS011;64821;13.710;100.604;2023-04-30T05:02:51;16.00;;;8.88;;
76094;SDS011;64821;13.710;100.604;2023-04-30T05:03:55;13.90;;;9.00;;
76094;SDS011;64821;13.710;100.604;2023-04-30T05:04:59;16.63;;;9.20;;
76094;SDS011;64821;13.710;100.604;2023-04-30T05:06:03;16.33;;;9.23;;
76094;SDS011;64821;13.710;100.604;2023-04-30T05:07:07;15.45;;;9.18;;
76094;SDS011;64821;13.710;100.604;2023-04-30T05:08:11;17.42;;;9.18;;
76094;SDS011;64821;13.710;100.604;2023-04-30T05:09:16;16.00;;;9.20;;
76094;SDS011;64821;13.710;100.604;2023-04-30T05:10:20;16.27;;;9.25;;
76094;SDS011;64821;13.710;100.604;2023-04-30T05:11:24;14.90;;;9.10;;
76094;SDS011;64821;13.710;100.604;2023-04-30T05:12:27;15.93;;;9.40;;
76094;SDS011;64821;13.710;100.604;2023-04-30T05:13:33;17.33;;;10.40;;
76094;SDS011;64821;13.710;100.604;2023-04-30T05:14:37;19.75;;;12.27;;
76094;SDS011;64821;13.710;100.604;2023-04-30T05:15:41;18.67;;;12.32;;
76094;SDS011;64821;13.710;100.604;2023-04-30T05:16:45;18.57;;;11.90;;
76094;SDS011;64821;13.710;100.604;2023-04-30T05:17:48;17.08;;;11.20;;
76094;SDS011;64821;13.710;100.604;2023-04-30T05:18:52;17.65;;;11.60;;
76094;SDS011;64821;13.710;100.604;2023-04-30T05:19:56;17.10;;;10.25;;
76094;SDS011;64821;13.710;100.604;2023-04-30T05:21:00;19.40;;;11.45;;
76094;SDS011;64821;13.710;100.604;2023-04-30T05:22:03;17.07;;;10.27;;
76094;SDS011;64821;13.710;100.604;2023-04-30T05:23:07;17.50;;;10.38;;
76094;SDS011;64821;13.710;100.604;2023-04-30T05:24:11;18.33;;;11.20;;
76094;SDS011;64821;13.710;100.604;2023-04-30T05:25:16;16.60;;;10.50;;
76094;SDS011;64821;13.710;100.604;2023-04-30T05:26:20;18.40;;;10.52;;
76094;SDS011;64821;13.710;100.604;2023-04-30T05:27:24;17.13;;;10.73;;
76094;SDS011;64821;13.710;100.604;2023-04-30T05:28:28;16.20;;;10.15;;
76094;SDS011;64821;13.710;100.604;2023-04-30T05:29:31;17.40;;;11.68;;
76094;SDS011;64821;13.710;100.604;2023-04-30T05:30:35;15.88;;;9.80;;
76094;SDS011;64821;13.710;100.604;2023-04-30T05:31:39;17.23;;;10.55;;
76094;SDS011;64821;13.710;100.604;2023-04-30T05:32:43;14.90;;;10.20;;
76094;SDS011;64821;13.710;100.604;2023-04-30T05:33:47;15.77;;;10.20;;
76094;SDS011;64821;13.710;100.604;2023-04-30T05:34:50;16.08;;;9.80;;
76094;SDS011;64821;13.710;100.604;2023-04-30T05:35:54;19.17;;;10.52;;
76094;SDS011;64821;13.710;100.604;2023-04-30T05:36:58;15.05;;;9.10;;
76094;SDS011;64821;13.710;100.604;2023-04-30T05:38:02;17.90;;;8.33;;
76094;SDS011;64821;13.710;100.604;2023-04-30T05:39:06;12.88;;;7.88;;
76094;SDS011;64821;13.710;100.604;2023-04-30T05:40:10;10.68;;;5.80;;
76094;SDS011;64821;13.710;100.604;2023-04-30T05:41:16;10.25;;;4.70;;
76094;SDS011;64821;13.710;100.604;2023-04-30T05:42:19;9.63;;;4.57;;
76094;SDS011;64821;13.710;100.604;2023-04-30T05:43:23;10.13;;;4.40;;
76094;SDS011;64821;13.710;100.604;2023-04-30T05:44:27;8.93;;;4.20;;
76094;SDS011;64821;13.710;100.604;2023-04-30T05:45:32;9.77;;;4.10;;
76094;SDS011;64821;13.710;100.604;2023-04-30T05:46:35;9.93;;;4.20;;
76094;SDS011;64821;13.710;100.604;2023-04-30T05:47:39;9.68;;;4.10;;
76094;SDS011;64821;13.710;100.604;2023-04-30T05:48:43;8.10;;;3.53;;
76094;SDS011;64821;13.710;100.604;2023-04-30T05:49:47;10.07;;;3.75;;
76094;SDS011;64821;13.710;100.604;2023-04-30T05:50:51;8.85;;;3.70;;
76094;SDS011;64821;13.710;100.604;2023-04-30T05:51:54;9.80;;;3.47;;
76094;SDS011;64821;13.710;100.604;2023-04-30T05:52:58;9.15;;;3.20;;
76094;SDS011;64821;13.710;100.604;2023-04-30T05:54:02;8.70;;;3.20;;
76094;SDS011;64821;13.710;100.604;2023-04-30T05:55:06;9.85;;;3.38;;
76094;SDS011;64821;13.710;100.604;2023-04-30T05:56:11;8.93;;;3.50;;
76094;SDS011;64821;13.710;100.604;2023-04-30T05:57:16;9.23;;;3.47;;
76094;SDS011;64821;13.710;100.604;2023-04-30T05:58:20;8.32;;;3.50;;
76094;SDS011;64821;13.710;100.604;2023-04-30T05:59:24;9.63;;;3.70;;
76094;SDS011;64821;13.710;100.604;2023-04-30T06:00:28;9.13;;;3.30;;
76094;SDS011;64821;13.710;100.604;2023-04-30T06:01:32;10.35;;;3.15;;
76094;SDS011;64821;13.710;100.604;2023-04-30T06:02:36;9.27;;;3.45;;
76094;SDS011;64821;13.710;100.604;2023-04-30T06:03:40;8.88;;;3.47;;
76094;SDS011;64821;13.710;100.604;2023-04-30T06:04:43;10.07;;;3.63;;
76094;SDS011;64821;13.710;100.604;2023-04-30T06:05:47;9.18;;;3.13;;
76094;SDS011;64821;13.710;100.604;2023-04-30T06:06:51;9.50;;;3.03;;
76094;SDS011;64821;13.710;100.604;2023-04-30T06:07:55;10.18;;;3.50;;
76094;SDS011;64821;13.710;100.604;2023-04-30T06:08:59;9.48;;;3.35;;
76094;SDS011;64821;13.710;100.604;2023-04-30T06:10:03;8.63;;;2.97;;
76094;SDS011;64821;13.710;100.604;2023-04-30T06:11:07;10.05;;;2.60;;
76094;SDS011;64821;13.710;100.604;2023-04-30T06:12:11;8.30;;;3.35;;
76094;SDS011;64821;13.710;100.604;2023-04-30T06:13:17;9.25;;;2.80;;
76094;SDS011;64821;13.710;100.604;2023-04-30T06:14:20;7.72;;;2.80;;